Time;durP1;ratioP1;P1;durP2;ratioP2;P2;SDS_P1;SDS_P2;PMS_P1;PMS_P2;Temp;Humidity;BMP_temperature;BMP_pressure;BME280_temperature;BME280_humidity;BME280_pressure;Samples;Min_cycle;Max_cycle;Signal;HPM_P1;HPM_P2
2021/08/27 00:00:28;;;;;;;9.85;7.13;;;21.30;82.40;;;;;;5019538;28;20026;-63
2021/08/27 00:02:54;;;;;;;8.63;6.88;;;21.30;82.50;;;;;;5022425;28;20048;-63
2021/08/27 00:05:20;;;;;;;8.00;6.10;;;21.30;82.50;;;;;;5032357;28;20045;-63
2021/08/27 00:07:45;;;;;;;7.80;7.00;;;21.30;82.50;;;;;;5033703;28;20108;-63
2021/08/27 00:10:11;;;;;;;7.55;6.43;;;21.30;82.70;;;;;;5032638;28;20032;-63
2021/08/27 00:12:37;;;;;;;7.70;6.78;;;21.30;82.60;;;;;;5032675;28;20037;-63
2021/08/27 00:15:06;;;;;;;8.35;7.35;;;21.30;82.70;;;;;;5032668;28;20091;-63
2021/08/27 00:17:31;;;;;;;7.82;7.03;;;21.30;82.50;;;;;;5017786;28;20038;-63
2021/08/27 00:19:58;;;;;;;8.60;7.20;;;21.20;82.50;;;;;;5017849;28;20026;-63
2021/08/27 00:22:24;;;;;;;10.35;7.20;;;21.20;82.70;;;;;;5033155;28;20029;-63
2021/08/27 00:24:50;;;;;;;8.35;7.22;;;21.20;82.80;;;;;;5033702;28;20377;-63
2021/08/27 00:27:16;;;;;;;10.00;7.40;;;21.10;82.90;;;;;;5033162;28;20026;-63
2021/08/27 00:29:42;;;;;;;7.85;7.05;;;21.10;82.90;;;;;;5033615;28;20096;-63
2021/08/27 00:32:07;;;;;;;8.02;7.10;;;21.10;82.80;;;;;;5027245;28;20091;-63
2021/08/27 00:34:33;;;;;;;7.93;6.70;;;21.10;82.50;;;;;;5015381;28;20044;-63
2021/08/27 00:37:00;;;;;;;8.25;7.20;;;21.10;82.30;;;;;;5027214;28;20037;-63
2021/08/27 00:39:26;;;;;;;8.05;6.50;;;21.00;82.10;;;;;;5033076;28;20022;-63
2021/08/27 00:41:52;;;;;;;8.65;6.78;;;21.00;82.10;;;;;;5032552;28;20032;-63
2021/08/27 00:44:18;;;;;;;9.13;6.97;;;21.00;82.10;;;;;;5019791;28;20017;-63
2021/08/27 00:46:44;;;;;;;7.72;6.85;;;21.00;82.00;;;;;;5020051;28;20018;-63
2021/08/27 00:49:10;;;;;;;7.70;6.32;;;21.00;81.60;;;;;;5019689;28;20026;-63
2021/08/27 00:51:35;;;;;;;7.72;6.93;;;21.00;81.40;;;;;;5024744;28;20037;-63
2021/08/27 00:54:02;;;;;;;8.40;6.75;;;21.00;81.40;;;;;;5039693;28;20026;-63
2021/08/27 00:56:29;;;;;;;8.35;7.40;;;21.00;81.40;;;;;;5041580;28;20022;-63
2021/08/27 00:58:55;;;;;;;7.25;6.18;;;21.00;81.50;;;;;;5038656;28;20029;-63
2021/08/27 01:01:21;;;;;;;7.95;6.40;;;21.00;81.30;;;;;;5039640;28;20037;-63
2021/08/27 01:03:47;;;;;;;9.02;6.25;;;20.90;81.40;;;;;;5037712;28;20400;-63
2021/08/27 01:06:35;;;;;;;7.97;6.60;;;20.90;81.40;;;;;;5038602;28;20454;-63
2021/08/27 01:09:28;;;;;;;8.20;6.22;;;20.90;81.50;;;;;;5037461;28;20037;-63
2021/08/27 01:12:07;;;;;;;6.78;6.00;;;20.90;81.60;;;;;;5038946;28;20469;-63
2021/08/27 01:14:41;;;;;;;7.22;6.10;;;20.90;81.70;;;;;;5040104;28;20033;-63
2021/08/27 01:17:14;;;;;;;6.68;5.75;;;20.90;81.50;;;;;;5039802;28;20021;-63
2021/08/27 01:19:51;;;;;;;8.55;6.30;;;20.90;81.40;;;;;;5040043;28;20075;-63
2021/08/27 01:22:23;;;;;;;6.88;5.88;;;20.90;81.30;;;;;;5039619;28;20025;-63
2021/08/27 01:24:51;;;;;;;6.53;5.68;;;20.90;81.20;;;;;;5030631;28;20057;-63
2021/08/27 01:27:18;;;;;;;7.72;5.85;;;20.90;81.00;;;;;;5034529;28;20122;-63
2021/08/27 01:29:44;;;;;;;7.65;6.00;;;20.90;81.50;;;;;;5038683;28;20033;-63
2021/08/27 01:32:16;;;;;;;7.68;6.53;;;20.90;80.80;;;;;;5039740;28;20041;-63
2021/08/27 01:34:44;;;;;;;6.72;5.90;;;20.90;80.80;;;;;;5040069;28;20068;-63
2021/08/27 01:37:16;;;;;;;6.47;5.78;;;20.90;80.80;;;;;;5039796;28;20053;-63
2021/08/27 01:39:51;;;;;;;7.15;6.25;;;20.90;80.70;;;;;;5038954;28;20069;-63
2021/08/27 01:42:21;;;;;;;9.48;6.53;;;20.90;80.70;;;;;;5027456;28;20045;-63
2021/08/27 01:44:48;;;;;;;7.20;6.25;;;20.90;80.80;;;;;;5023115;28;20474;-63
2021/08/27 01:47:17;;;;;;;7.95;6.53;;;20.90;80.90;;;;;;5035742;28;20079;-63
2021/08/27 01:49:44;;;;;;;8.80;6.70;;;20.80;81.00;;;;;;5039723;28;20025;-63
2021/08/27 01:52:10;;;;;;;8.32;6.60;;;20.80;81.00;;;;;;5039044;28;20113;-63
2021/08/27 01:54:37;;;;;;;7.47;6.55;;;20.80;81.10;;;;;;5036298;28;20075;-63
2021/08/27 01:57:04;;;;;;;7.93;6.05;;;20.90;81.10;;;;;;5035212;28;20036;-63
2021/08/27 01:59:41;;;;;;;8.88;6.85;;;20.80;81.00;;;;;;5035580;28;20463;-63
2021/08/27 02:02:10;;;;;;;8.88;6.85;;;20.90;81.00;;;;;;5036368;28;20026;-63
2021/08/27 02:04:38;;;;;;;8.15;6.95;;;20.90;81.00;;;;;;5036420;28;20025;-63
2021/08/27 02:07:05;;;;;;;9.98;7.30;;;20.90;81.10;;;;;;5036069;28;20053;-63
2021/08/27 02:09:32;;;;;;;8.20;6.97;;;20.90;81.10;;;;;;5036499;28;20064;-63
2021/08/27 02:11:59;;;;;;;8.20;7.30;;;20.90;81.20;;;;;;5035513;28;20025;-63
2021/08/27 02:14:24;;;;;;;9.30;7.32;;;20.90;81.30;;;;;;5026853;28;20072;-63
2021/08/27 02:16:50;;;;;;;9.45;7.60;;;20.80;81.30;;;;;;5032226;28;20408;-63
2021/08/27 02:19:16;;;;;;;8.18;6.93;;;20.80;81.40;;;;;;5035948;28;20025;-63
2021/08/27 02:21:49;;;;;;;7.43;6.30;;;20.80;81.40;;;;;;5036136;28;20033;-63
2021/08/27 02:24:20;;;;;;;8.05;6.65;;;20.80;81.50;;;;;;5036027;28;20385;-63
2021/08/27 02:26:48;;;;;;;8.07;6.47;;;20.80;81.50;;;;;;5033699;28;20037;-63
2021/08/27 02:29:17;;;;;;;7.65;5.97;;;20.80;81.50;;;;;;5035012;28;20108;-63
2021/08/27 02:31:47;;;;;;;7.15;5.68;;;20.80;81.50;;;;;;5035507;28;20133;-63
2021/08/27 02:34:17;;;;;;;6.68;5.55;;;20.80;81.70;;;;;;5034921;28;20029;-63
2021/08/27 02:36:45;;;;;;;8.43;5.85;;;20.70;81.60;;;;;;5036170;28;20553;-63
2021/08/27 02:39:14;;;;;;;7.75;6.10;;;20.70;81.70;;;;;;5035536;28;20080;-63
2021/08/27 02:41:40;;;;;;;8.55;6.25;;;20.60;81.90;;;;;;5035468;28;20507;-63
2021/08/27 02:44:05;;;;;;;8.32;6.15;;;20.60;82.00;;;;;;5024216;28;20110;-63
2021/08/27 02:46:31;;;;;;;8.52;6.72;;;20.60;82.20;;;;;;5015877;28;20032;-63
2021/08/27 02:48:57;;;;;;;8.18;6.65;;;20.50;82.20;;;;;;5016242;28;20026;-63
2021/08/27 02:51:38;;;;;;;6.88;6.18;;;20.50;82.30;;;;;;5015588;28;20478;-63
2021/08/27 02:54:07;;;;;;;8.80;6.38;;;20.50;82.50;;;;;;5015695;28;20041;-63
2021/08/27 02:56:39;;;;;;;7.43;6.30;;;20.50;82.60;;;;;;5027698;28;20079;-63
2021/08/27 02:59:11;;;;;;;7.55;6.75;;;20.50;82.80;;;;;;5033738;28;20037;-63
2021/08/27 03:01:48;;;;;;;9.38;7.65;;;20.50;82.90;;;;;;5035420;28;20017;-63
2021/08/27 03:04:19;;;;;;;7.78;6.25;;;20.50;82.90;;;;;;5034669;28;20025;-63
2021/08/27 03:06:56;;;;;;;;;;;20.50;82.90;;;;;;5027032;28;20025;-63
2021/08/27 03:09:25;;;;;;;9.02;7.03;;;20.40;82.50;;;;;;5015481;28;19909;-63
2021/08/27 03:12:03;;;;;;;9.05;7.00;;;20.50;82.80;;;;;;5015730;28;20030;-63
2021/08/27 03:14:47;;;;;;;8.50;7.22;;;20.50;82.60;;;;;;5025571;28;20110;-63
2021/08/27 03:17:18;;;;;;;10.85;7.95;;;20.50;82.60;;;;;;5034444;28;20025;-63
2021/08/27 03:20:17;;;;;;;13.85;8.45;;;20.50;82.40;;;;;;5034929;28;20123;-63
2021/08/27 03:22:52;;;;;;;12.02;9.20;;;20.40;82.30;;;;;;5026478;28;20040;-63
2021/08/27 03:25:21;;;;;;;13.02;9.77;;;20.30;82.50;;;;;;5034117;28;20037;-63
2021/08/27 03:27:50;;;;;;;12.82;8.93;;;20.30;82.80;;;;;;5034905;28;20028;-63
2021/08/27 03:30:20;;;;;;;13.38;9.68;;;20.30;82.80;;;;;;5034280;28;20386;-63
2021/08/27 03:32:57;;;;;;;12.20;8.57;;;20.20;83.00;;;;;;5034767;28;20371;-63
2021/08/27 03:35:23;;;;;;;11.95;8.63;;;20.20;83.10;;;;;;5034633;28;20052;-63
2021/08/27 03:37:51;;;;;;;13.15;9.02;;;20.10;83.30;;;;;;5034533;28;20052;-63
2021/08/27 03:40:19;;;;;;;13.63;9.65;;;20.10;83.50;;;;;;5030229;28;20369;-63
2021/08/27 03:42:45;;;;;;;14.77;9.98;;;20.00;83.40;;;;;;5024315;28;20029;-63
2021/08/27 03:45:12;;;;;;;12.70;9.07;;;20.00;83.70;;;;;;5032092;28;20025;-63
2021/08/27 03:47:40;;;;;;;14.55;9.57;;;20.00;83.90;;;;;;5031730;28;20036;-63
2021/08/27 03:50:08;;;;;;;13.13;9.05;;;20.00;83.80;;;;;;5034208;28;20032;-63
2021/08/27 03:52:35;;;;;;;15.32;10.18;;;20.00;83.90;;;;;;5034556;28;20444;-63
2021/08/27 03:55:01;;;;;;;17.60;10.57;;;20.00;84.00;;;;;;5034251;28;20461;-63
2021/08/27 03:57:27;;;;;;;14.65;9.70;;;19.90;84.00;;;;;;5015445;28;20025;-63
2021/08/27 03:59:53;;;;;;;17.50;11.20;;;19.90;84.20;;;;;;5014489;28;20062;-63
2021/08/27 04:02:19;;;;;;;14.75;10.23;;;19.90;84.50;;;;;;5030623;28;20056;-63
2021/08/27 04:04:45;;;;;;;13.60;9.20;;;19.90;84.30;;;;;;5033615;28;20067;-63
2021/08/27 04:07:10;;;;;;;14.43;9.73;;;19.90;84.40;;;;;;5033457;28;20029;-63
2021/08/27 04:09:36;;;;;;;11.63;9.10;;;19.90;84.40;;;;;;5033577;28;20549;-63
2021/08/27 04:12:05;;;;;;;14.00;9.90;;;19.90;84.40;;;;;;5030249;28;20030;-63
2021/08/27 04:14:31;;;;;;;11.63;8.60;;;19.90;84.40;;;;;;5031147;28;20565;-63
2021/08/27 04:16:58;;;;;;;11.52;8.57;;;19.90;84.40;;;;;;5030477;28;20055;-63
2021/08/27 04:19:24;;;;;;;13.20;10.18;;;19.90;84.50;;;;;;5033128;28;20029;-63
2021/08/27 04:21:50;;;;;;;12.57;8.90;;;19.90;84.50;;;;;;5033493;28;20037;-63
2021/08/27 04:24:15;;;;;;;11.55;8.40;;;19.90;84.60;;;;;;5033421;28;20025;-63
2021/08/27 04:26:41;;;;;;;11.73;8.25;;;19.80;84.60;;;;;;5033461;28;20107;-63
2021/08/27 04:29:11;;;;;;;12.15;9.25;;;19.80;84.70;;;;;;5033349;28;20061;-63
2021/08/27 04:31:37;;;;;;;10.75;8.70;;;19.90;84.80;;;;;;5026168;28;20115;-63
2021/08/27 04:34:03;;;;;;;11.15;8.90;;;19.90;84.70;;;;;;5029970;28;20033;-63
2021/08/27 04:36:28;;;;;;;11.23;8.50;;;19.90;84.90;;;;;;5033571;28;20039;-62
2021/08/27 04:38:54;;;;;;;10.02;8.50;;;19.80;84.70;;;;;;5033157;28;20025;-63
2021/08/27 04:41:20;;;;;;;14.20;11.15;;;19.90;84.70;;;;;;5020330;28;20065;-63
2021/08/27 04:43:48;;;;;;;11.77;9.65;;;19.90;84.70;;;;;;5023253;28;20109;-63
2021/08/27 04:46:14;;;;;;;13.00;9.73;;;19.90;84.70;;;;;;5032496;28;20449;-63
2021/08/27 04:48:40;;;;;;;13.05;10.15;;;19.90;84.70;;;;;;5030367;28;20044;-63
2021/08/27 04:51:05;;;;;;;12.68;9.77;;;19.90;84.70;;;;;;5032224;28;20029;-63
2021/08/27 04:53:31;;;;;;;11.23;8.75;;;19.90;84.70;;;;;;5032814;28;20018;-63
2021/08/27 04:55:56;;;;;;;13.45;10.07;;;19.90;84.60;;;;;;5033017;28;20072;-62
2021/08/27 04:58:25;;;;;;;11.98;9.65;;;19.90;84.60;;;;;;5032162;28;20040;-63
2021/08/27 05:00:50;;;;;;;14.82;10.70;;;19.90;84.60;;;;;;5028767;28;20048;-62
2021/08/27 05:03:16;;;;;;;14.30;10.05;;;19.90;84.70;;;;;;5027555;28;20021;-63
2021/08/27 05:05:42;;;;;;;12.55;9.52;;;19.90;84.70;;;;;;5030171;28;20040;-63
2021/08/27 05:08:08;;;;;;;13.18;9.27;;;20.00;85.40;;;;;;5045309;28;20025;-63
2021/08/27 05:10:34;;;;;;;13.27;10.45;;;20.00;84.80;;;;;;5033386;28;20033;-63
2021/08/27 05:13:00;;;;;;;12.02;9.23;;;20.00;84.60;;;;;;5033356;28;20030;-63
2021/08/27 05:15:25;;;;;;;13.27;10.43;;;20.00;84.50;;;;;;5030942;28;20037;-63
2021/08/27 05:17:51;;;;;;;13.00;10.18;;;20.10;84.60;;;;;;5033298;28;20025;-63
2021/08/27 05:20:17;;;;;;;15.25;11.10;;;20.00;84.20;;;;;;5032475;28;20021;-63
2021/08/27 05:22:42;;;;;;;13.65;10.65;;;20.10;84.70;;;;;;5028638;28;20044;-63
2021/08/27 05:25:09;;;;;;;13.93;9.02;;;20.10;84.20;;;;;;5029324;28;20038;-66
2021/08/27 05:27:38;;;;;;;12.23;9.27;;;20.10;85.00;;;;;;5031070;28;20457;-66
2021/08/27 05:30:09;;;;;;;13.35;10.23;;;20.20;85.20;;;;;;5034637;28;20514;-65
2021/08/27 05:32:35;;;;;;;15.95;11.20;;;20.40;85.10;;;;;;5032396;28;20378;-65
2021/08/27 05:35:00;;;;;;;16.13;11.93;;;20.50;84.60;;;;;;5033739;28;20063;-65
2021/08/27 05:37:26;;;;;;;13.13;10.15;;;20.70;84.00;;;;;;5031825;28;20408;-65
2021/08/27 05:39:52;;;;;;;12.65;9.45;;;20.90;83.40;;;;;;5027644;28;20065;-65
2021/08/27 05:42:18;;;;;;;14.48;11.13;;;21.00;82.70;;;;;;5029546;28;20031;-64
2021/08/27 05:44:44;;;;;;;13.95;10.60;;;21.10;82.20;;;;;;5031593;28;20083;-63
2021/08/27 05:47:10;;;;;;;13.18;10.38;;;21.30;81.70;;;;;;5032772;28;20230;-63
2021/08/27 05:49:36;;;;;;;15.70;11.05;;;21.40;81.10;;;;;;5031111;28;20378;-61
2021/08/27 05:52:02;;;;;;;14.95;10.57;;;21.60;80.90;;;;;;5025409;28;20025;-61
2021/08/27 05:54:28;;;;;;;12.73;10.13;;;21.70;80.40;;;;;;5026374;28;20037;-62
2021/08/27 05:56:55;;;;;;;12.70;9.57;;;21.70;79.80;;;;;;5026390;28;20041;-63
2021/08/27 05:59:21;;;;;;;13.60;10.05;;;21.70;79.50;;;;;;5025472;28;20052;-62
2021/08/27 06:01:46;;;;;;;13.65;10.30;;;21.80;79.30;;;;;;5020771;28;20033;-63
2021/08/27 06:04:13;;;;;;;13.85;11.13;;;21.70;79.20;;;;;;5017106;28;20096;-63
2021/08/27 06:06:40;;;;;;;18.77;11.52;;;21.80;79.30;;;;;;5019459;28;20032;-63
2021/08/27 06:09:06;;;;;;;16.02;11.10;;;21.70;78.90;;;;;;5023714;28;20049;-63
2021/08/27 06:11:37;;;;;;;16.20;11.70;;;21.70;79.00;;;;;;5018716;28;20029;-63
2021/08/27 06:14:05;;;;;;;13.60;10.93;;;21.70;78.80;;;;;;5014196;28;20041;-63
2021/08/27 06:16:30;;;;;;;17.55;11.73;;;21.70;78.70;;;;;;5019620;28;20037;-61
2021/08/27 06:18:56;;;;;;;17.45;11.13;;;21.60;78.70;;;;;;5020511;28;20602;-63
2021/08/27 06:21:22;;;;;;;16.30;11.93;;;21.60;78.90;;;;;;5019228;28;20037;-64
2021/08/27 06:23:48;;;;;;;18.08;12.02;;;21.50;79.20;;;;;;5022470;28;20037;-61
2021/08/27 06:26:13;;;;;;;16.02;11.32;;;21.50;79.20;;;;;;5025543;28;20037;-59
2021/08/27 06:28:39;;;;;;;18.75;12.43;;;21.50;79.40;;;;;;5023873;28;20522;-62
2021/08/27 06:31:05;;;;;;;18.55;12.35;;;21.40;79.30;;;;;;5028587;28;20053;-59
2021/08/27 06:33:31;;;;;;;15.75;11.75;;;21.40;79.30;;;;;;5033889;28;20069;-63
2021/08/27 06:35:58;;;;;;;16.85;11.75;;;21.40;79.20;;;;;;5029329;28;20041;-64
2021/08/27 06:38:24;;;;;;;19.63;12.85;;;21.30;79.30;;;;;;5028391;28;20029;-63
2021/08/27 06:40:54;;;;;;;22.73;13.48;;;21.30;79.50;;;;;;5024007;28;20033;-61
2021/08/27 06:43:21;;;;;;;22.50;14.07;;;21.20;79.50;;;;;;5028517;28;20040;-61
2021/08/27 06:45:47;;;;;;;19.95;13.35;;;21.20;79.70;;;;;;5026308;28;20033;-63
2021/08/27 06:48:12;;;;;;;19.20;13.32;;;21.10;79.70;;;;;;5020886;28;20034;-61
2021/08/27 06:50:38;;;;;;;19.45;13.40;;;21.10;79.80;;;;;;5024344;28;20033;-63
2021/08/27 06:53:06;;;;;;;18.90;13.02;;;21.00;79.90;;;;;;5017387;28;20025;-63
2021/08/27 06:55:32;;;;;;;18.10;12.98;;;21.00;80.10;;;;;;5021442;28;20128;-64
2021/08/27 06:58:02;;;;;;;16.02;12.23;;;21.00;80.20;;;;;;5021458;28;20111;-63
2021/08/27 07:00:28;;;;;;;19.27;13.43;;;20.90;80.20;;;;;;5019700;28;20029;-61
2021/08/27 07:02:54;;;;;;;16.45;12.15;;;20.90;80.90;;;;;;5024645;28;20483;-63
2021/08/27 07:05:20;;;;;;;17.42;12.10;;;20.80;80.40;;;;;;5015050;28;20034;-63
2021/08/27 07:07:46;;;;;;;21.15;14.65;;;20.80;80.60;;;;;;5024653;28;20525;-64
2021/08/27 07:10:13;;;;;;;19.30;13.63;;;20.80;80.60;;;;;;5024131;28;20037;-63
2021/08/27 07:12:38;;;;;;;21.25;14.68;;;20.70;80.60;;;;;;5015762;28;20040;-63
2021/08/27 07:15:06;;;;;;;18.15;13.05;;;20.70;80.80;;;;;;5020527;28;20101;-63
2021/08/27 07:17:32;;;;;;;20.88;14.27;;;20.70;80.80;;;;;;5020395;28;20142;-64
2021/08/27 07:19:57;;;;;;;17.50;13.18;;;20.60;81.00;;;;;;5022180;28;20457;-63
2021/08/27 07:22:23;;;;;;;16.77;12.30;;;20.60;81.60;;;;;;5019302;28;21570;-63
2021/08/27 07:24:49;;;;;;;16.63;12.30;;;20.50;81.30;;;;;;5022978;28;20026;-63
2021/08/27 07:27:15;;;;;;;22.08;15.10;;;20.50;81.60;;;;;;5022071;28;20072;-63
2021/08/27 07:29:41;;;;;;;17.52;13.30;;;20.50;81.70;;;;;;5021830;28;20037;-65
2021/08/27 07:32:11;;;;;;;20.35;14.07;;;20.50;81.80;;;;;;5012837;28;20111;-64
2021/08/27 07:34:42;;;;;;;20.23;15.73;;;20.40;82.00;;;;;;5015716;28;20030;-65
2021/08/27 07:37:08;;;;;;;;;;;20.40;82.00;;;;;;5002263;28;20478;-65
2021/08/27 07:39:34;;;;;;;16.98;12.27;;;20.30;81.90;;;;;;5020143;28;19927;-63
2021/08/27 07:42:00;;;;;;;19.38;13.32;;;20.30;82.20;;;;;;5018080;28;20091;-65
2021/08/27 07:44:26;;;;;;;17.60;12.70;;;20.30;82.20;;;;;;5014311;28;20113;-64
2021/08/27 07:46:52;;;;;;;18.83;13.93;;;20.30;82.50;;;;;;5016210;28;20030;-65
2021/08/27 07:49:17;;;;;;;19.25;13.95;;;20.30;82.60;;;;;;5018928;28;20029;-65
2021/08/27 07:51:46;;;;;;;18.05;13.45;;;20.30;82.40;;;;;;5022764;28;20148;-65
2021/08/27 07:54:13;;;;;;;21.77;14.65;;;20.30;82.40;;;;;;5010477;28;20534;-65
2021/08/27 07:56:39;;;;;;;18.50;13.70;;;20.30;82.50;;;;;;5008363;28;20950;-66
2021/08/27 07:59:04;;;;;;;17.17;13.38;;;20.20;82.70;;;;;;5012318;28;20121;-66
2021/08/27 08:01:30;;;;;;;19.75;14.43;;;20.30;82.70;;;;;;5015491;28;20025;-66
2021/08/27 08:03:56;;;;;;;20.35;15.27;;;20.30;82.70;;;;;;5017236;28;20116;-66
2021/08/27 08:06:21;;;;;;;20.38;14.80;;;20.40;82.90;;;;;;5021244;28;20036;-66
2021/08/27 08:08:47;;;;;;;18.98;13.85;;;20.40;83.30;;;;;;5017229;28;20437;-66
2021/08/27 08:11:13;;;;;;;19.05;14.35;;;20.40;83.10;;;;;;5016995;28;20076;-66
2021/08/27 08:13:39;;;;;;;18.70;13.75;;;20.50;83.00;;;;;;5010827;28;20544;-66
2021/08/27 08:16:04;;;;;;;17.23;12.77;;;20.50;82.90;;;;;;5028076;28;20025;-66
2021/08/27 08:18:31;;;;;;;18.75;14.05;;;20.60;82.80;;;;;;5009973;28;20780;-66
2021/08/27 08:20:57;;;;;;;16.90;12.70;;;20.60;82.80;;;;;;5019753;28;20041;-66
2021/08/27 08:23:23;;;;;;;21.95;13.82;;;20.70;82.80;;;;;;5015951;28;20136;-65
2021/08/27 08:25:49;;;;;;;18.17;13.45;;;20.80;82.70;;;;;;5018009;28;20053;-65
2021/08/27 08:28:15;;;;;;;17.75;12.55;;;20.80;82.60;;;;;;5017573;28;20036;-66
2021/08/27 08:30:42;;;;;;;17.42;13.07;;;20.90;82.20;;;;;;5021116;28;20053;-66
2021/08/27 08:33:08;;;;;;;15.80;12.00;;;21.00;81.90;;;;;;5015625;28;20103;-66
2021/08/27 08:35:33;;;;;;;16.35;12.27;;;21.00;81.80;;;;;;5022890;28;20083;-66
2021/08/27 08:37:59;;;;;;;15.32;12.32;;;21.00;81.50;;;;;;5021489;28;20509;-66
2021/08/27 08:40:25;;;;;;;15.27;12.23;;;21.10;81.40;;;;;;5018718;28;20041;-65
2021/08/27 08:42:50;;;;;;;16.77;12.07;;;21.10;81.40;;;;;;5017804;28;20041;-65
2021/08/27 08:45:16;;;;;;;17.23;13.73;;;21.10;81.20;;;;;;5024310;28;20072;-65
2021/08/27 08:47:45;;;;;;;15.52;11.95;;;21.10;81.20;;;;;;5021480;28;20034;-65
2021/08/27 08:50:12;;;;;;;16.58;12.70;;;21.20;81.10;;;;;;5019765;28;20117;-65
2021/08/27 08:52:40;;;;;;;18.23;13.55;;;21.20;81.00;;;;;;5019603;28;20450;-65
2021/08/27 08:55:06;;;;;;;17.35;13.10;;;21.30;80.90;;;;;;5022493;28;20087;-66
2021/08/27 08:57:32;;;;;;;18.60;14.90;;;21.30;80.70;;;;;;5017069;28;20029;-66
2021/08/27 08:59:57;;;;;;;17.38;14.10;;;21.40;80.70;;;;;;5019339;28;20049;-66
2021/08/27 09:02:23;;;;;;;18.23;14.73;;;21.40;80.60;;;;;;5020339;28;20088;-66
2021/08/27 09:08:15;;;;;;;15.98;12.45;;;21.60;80.30;;;;;;5028431;28;20031;-65
2021/08/27 09:10:42;;;;;;;15.40;13.23;;;21.60;80.20;;;;;;5027388;28;20033;-64
2021/08/27 09:13:08;;;;;;;15.88;13.30;;;21.70;80.00;;;;;;5023574;28;20128;-65
2021/08/27 09:15:34;;;;;;;16.50;12.70;;;21.80;79.50;;;;;;5018858;28;20708;-64
2021/08/27 09:18:10;;;;;;;17.25;13.40;;;21.90;79.10;;;;;;5021035;28;20155;-64
2021/08/27 09:20:36;;;;;;;14.93;12.25;;;21.90;78.90;;;;;;5019989;28;20035;-64
2021/08/27 09:23:06;;;;;;;18.02;12.43;;;21.90;79.00;;;;;;5022408;28;20067;-64
2021/08/27 09:25:36;;;;;;;13.88;11.52;;;22.00;79.00;;;;;;5025834;28;20037;-64
2021/08/27 09:28:04;;;;;;;13.98;12.02;;;22.00;78.90;;;;;;5021356;28;20029;-64
2021/08/27 09:30:37;;;;;;;14.90;12.20;;;22.10;78.40;;;;;;5018645;28;20057;-64
2021/08/27 09:33:21;;;;;;;14.45;11.30;;;22.10;78.00;;;;;;5020963;28;20036;-64
2021/08/27 09:36:04;;;;;;;12.68;10.25;;;22.20;77.90;;;;;;5013642;28;20462;-64
2021/08/27 09:38:39;;;;;;;14.68;12.10;;;22.30;77.70;;;;;;5021175;28;20036;-63
2021/08/27 09:41:06;;;;;;;13.38;11.57;;;22.30;77.60;;;;;;5024379;28;20041;-64
2021/08/27 09:43:44;;;;;;;14.55;11.82;;;22.40;77.50;;;;;;5024218;28;20037;-65
2021/08/27 09:46:42;;;;;;;12.70;10.98;;;22.50;77.20;;;;;;5019011;28;20060;-65
2021/08/27 09:49:26;;;;;;;12.27;10.25;;;22.60;77.00;;;;;;5013156;28;20683;-65
2021/08/27 09:51:53;;;;;;;11.95;10.57;;;22.60;76.40;;;;;;5014489;28;20037;-65
2021/08/27 09:54:26;;;;;;;13.80;11.65;;;22.70;76.00;;;;;;5018084;28;20775;-65
2021/08/27 09:57:00;;;;;;;14.85;11.45;;;22.70;75.60;;;;;;5011763;28;20033;-64
2021/08/27 09:59:35;;;;;;;13.05;11.45;;;22.60;76.20;;;;;;5018989;28;20136;-65
2021/08/27 10:02:03;;;;;;;15.52;12.02;;;22.60;75.50;;;;;;5017930;28;20081;-65
2021/08/27 10:04:29;;;;;;;13.15;11.75;;;22.60;75.60;;;;;;5012748;28;20030;-65
2021/08/27 10:06:56;;;;;;;13.73;11.48;;;22.60;75.60;;;;;;5022293;28;20521;-65
2021/08/27 10:09:22;;;;;;;13.23;11.13;;;22.60;75.60;;;;;;5020747;28;20526;-65
2021/08/27 10:11:58;;;;;;;12.40;10.82;;;22.60;75.40;;;;;;5019141;28;20026;-65
2021/08/27 10:14:25;;;;;;;12.32;11.00;;;22.60;75.30;;;;;;5020794;28;20823;-65
2021/08/27 10:16:51;;;;;;;12.65;11.27;;;22.60;75.40;;;;;;5015746;28;20040;-65
2021/08/27 10:19:16;;;;;;;14.43;12.50;;;22.70;75.40;;;;;;5019572;28;20037;-65
2021/08/27 10:21:42;;;;;;;15.20;12.75;;;22.70;75.30;;;;;;5014045;28;20849;-64
2021/08/27 10:24:08;;;;;;;15.60;11.63;;;22.70;75.20;;;;;;5014548;28;20129;-64
2021/08/27 10:26:39;;;;;;;15.82;11.82;;;22.70;75.10;;;;;;5019740;28;20059;-64
2021/08/27 10:29:05;;;;;;;14.65;11.90;;;22.70;75.20;;;;;;5019548;28;20532;-66
2021/08/27 10:31:48;;;;;;;12.35;10.98;;;22.80;75.10;;;;;;5019016;28;20758;-66
2021/08/27 11:05:52;;;;;;;11.25;9.23;;;23.30;73.30;;;;;;5015040;28;20068;-65
2021/08/27 11:08:29;;;;;;;8.60;7.70;;;23.30;73.00;;;;;;4985492;28;20045;-64
2021/08/27 11:11:13;;;;;;;9.43;7.68;;;23.20;72.80;;;;;;4992034;28;20804;-64
2021/08/27 11:13:39;;;;;;;9.10;8.18;;;23.20;72.30;;;;;;4994096;28;20072;-64
2021/08/27 11:16:20;;;;;;;9.70;8.70;;;23.20;72.30;;;;;;4989077;28;20029;-64
2021/08/27 11:18:47;;;;;;;8.98;8.07;;;23.20;72.00;;;;;;4995101;28;20058;-62
2021/08/27 11:21:40;;;;;;;9.32;8.35;;;23.10;72.20;;;;;;4996427;28;20033;-63
2021/08/27 11:24:17;;;;;;;10.25;9.20;;;23.20;72.20;;;;;;4997568;28;20072;-63
2021/08/27 11:26:47;;;;;;;9.65;8.65;;;23.10;72.00;;;;;;4998313;28;20072;-64
2021/08/27 11:29:32;;;;;;;9.35;8.32;;;23.20;72.10;;;;;;4996399;28;20508;-65
2021/08/27 11:32:10;;;;;;;8.82;7.93;;;23.10;71.70;;;;;;4998500;28;20140;-65
2021/08/27 11:35:05;;;;;;;9.82;8.75;;;23.10;71.60;;;;;;4997201;28;20030;-64
2021/08/27 11:37:41;;;;;;;10.23;8.82;;;23.10;71.70;;;;;;4997245;28;20078;-64
2021/08/27 11:40:13;;;;;;;8.88;7.95;;;23.20;71.40;;;;;;4990765;28;20061;-65
2021/08/27 11:42:39;;;;;;;9.50;8.25;;;23.20;71.10;;;;;;4991080;28;20026;-65
2021/08/27 11:45:07;;;;;;;10.15;9.15;;;23.20;71.00;;;;;;4991179;28;20030;-66
2021/08/27 11:47:54;;;;;;;8.90;8.00;;;23.30;70.80;;;;;;4986393;28;21706;-65
2021/08/27 11:50:34;;;;;;;9.57;8.57;;;23.40;70.60;;;;;;4990055;28;20038;-65
2021/08/27 11:53:02;;;;;;;9.20;8.23;;;23.40;70.40;;;;;;4984100;28;20141;-66
2021/08/27 11:55:29;;;;;;;8.68;7.75;;;23.50;70.40;;;;;;4993315;28;20033;-63
2021/08/27 11:57:59;;;;;;;11.00;9.85;;;23.50;70.20;;;;;;4994975;28;20036;-64
2021/08/27 12:00:30;;;;;;;12.35;9.70;;;23.60;70.00;;;;;;4990842;28;23282;-63
2021/08/27 12:02:56;;;;;;;12.10;10.55;;;23.60;69.70;;;;;;4990136;28;20037;-63
2021/08/27 12:05:24;;;;;;;11.40;10.15;;;23.60;69.70;;;;;;4989430;28;20642;-64
2021/08/27 12:08:02;;;;;;;11.38;10.25;;;23.50;69.70;;;;;;4992104;28;20488;-63
2021/08/27 12:10:32;;;;;;;12.85;11.05;;;23.50;70.00;;;;;;4990031;28;20064;-64
2021/08/27 12:12:59;;;;;;;12.88;10.93;;;23.50;70.00;;;;;;4982208;28;20038;-64
2021/08/27 12:15:34;;;;;;;11.48;10.00;;;23.40;69.90;;;;;;4988149;28;20044;-65
2021/08/27 12:18:08;;;;;;;11.73;10.43;;;23.30;70.10;;;;;;4985353;28;20486;-64
2021/08/27 12:20:54;;;;;;;9.77;8.77;;;23.30;70.10;;;;;;4991170;28;20120;-64
2021/08/27 12:23:22;;;;;;;12.93;10.45;;;23.20;70.20;;;;;;4987642;28;20041;-64
2021/08/27 12:25:58;;;;;;;11.98;9.70;;;23.10;70.40;;;;;;4989130;28;20034;-63
2021/08/27 12:28:37;;;;;;;12.93;10.93;;;23.00;70.70;;;;;;4990857;28;21767;-64
2021/08/27 12:31:03;;;;;;;11.40;10.10;;;22.90;70.90;;;;;;4990488;28;20063;-63
2021/08/27 12:33:38;;;;;;;10.77;9.68;;;22.80;71.10;;;;;;4987304;28;20030;-64
2021/08/27 12:36:06;;;;;;;11.00;9.73;;;22.80;71.10;;;;;;4985927;28;20029;-63
2021/08/27 12:38:31;;;;;;;10.38;9.27;;;22.70;71.40;;;;;;4988003;28;20440;-65
2021/08/27 12:41:17;;;;;;;10.23;9.20;;;22.70;71.60;;;;;;4994955;28;20033;-63
2021/08/27 12:43:44;;;;;;;10.55;9.52;;;22.60;71.70;;;;;;4990791;28;20506;-63
2021/08/27 12:46:25;;;;;;;11.07;9.50;;;22.60;71.80;;;;;;4991988;28;20026;-65
2021/08/27 12:49:10;;;;;;;9.45;8.45;;;22.60;71.90;;;;;;4996120;28;20113;-65
2021/08/27 12:51:42;;;;;;;9.15;8.25;;;22.50;71.80;;;;;;4997608;28;20103;-65
2021/08/27 12:54:09;;;;;;;9.90;8.90;;;22.40;71.90;;;;;;4995203;28;20116;-65
2021/08/27 12:56:35;;;;;;;10.40;8.82;;;22.40;71.90;;;;;;4998766;28;20061;-64
2021/08/27 12:59:18;;;;;;;11.73;9.30;;;22.40;71.90;;;;;;4998898;28;20022;-65
2021/08/27 13:01:44;;;;;;;8.93;8.00;;;22.30;71.80;;;;;;4995239;28;20065;-64
2021/08/27 13:04:10;;;;;;;10.70;8.77;;;22.30;71.80;;;;;;4995126;28;21285;-64
2021/08/27 13:06:36;;;;;;;10.73;9.05;;;22.30;71.80;;;;;;4988008;28;20029;-65
2021/08/27 13:09:03;;;;;;;9.70;8.70;;;22.30;71.90;;;;;;4992627;28;20021;-65
2021/08/27 13:11:44;;;;;;;9.07;8.07;;;22.20;71.60;;;;;;4999541;28;20034;-65
2021/08/27 13:14:21;;;;;;;;;;;22.20;71.70;;;;;;4991318;28;20115;-64
2021/08/27 13:17:08;;;;;;;8.70;7.38;;;22.20;71.90;;;;;;4987989;28;19988;-63
2021/08/27 13:19:52;;;;;;;8.93;8.00;;;22.10;71.70;;;;;;4995104;28;20817;-63